sensor_id;sensor_type;location;lat;lon;timestamp;temperature;humidity
997;DHT22;487;50.126;8.698;2023-07-20T04:02:00;21.00;1.00
997;DHT22;487;50.126;8.698;2023-07-20T04:04:28;20.80;1.00
997;DHT22;487;50.126;8.698;2023-07-20T04:06:56;20.80;1.00
997;DHT22;487;50.126;8.698;2023-07-20T04:09:23;20.50;1.00
997;DHT22;487;50.126;8.698;2023-07-20T04:11:51;20.40;1.00
997;DHT22;487;50.126;8.698;2023-07-20T04:14:19;20.40;1.00
997;DHT22;487;50.126;8.698;2023-07-20T04:16:47;20.40;1.00
997;DHT22;487;50.126;8.698;2023-07-20T04:19:16;20.40;1.00
997;DHT22;487;50.126;8.698;2023-07-20T04:21:44;20.50;1.00
997;DHT22;487;50.126;8.698;2023-07-20T04:24:12;20.40;1.00
997;DHT22;487;50.126;8.698;2023-07-20T04:26:40;20.50;1.00
997;DHT22;487;50.126;8.698;2023-07-20T04:29:08;20.60;1.00
997;DHT22;487;50.126;8.698;2023-07-20T04:31:36;20.60;1.00
997;DHT22;487;50.126;8.698;2023-07-20T04:34:03;20.80;1.00
997;DHT22;487;50.126;8.698;2023-07-20T04:36:33;20.90;1.00
997;DHT22;487;50.126;8.698;2023-07-20T04:39:00;20.90;1.00
997;DHT22;487;50.126;8.698;2023-07-20T04:44:00;21.00;1.00
997;DHT22;487;50.126;8.698;2023-07-20T04:46:28;21.00;1.00
997;DHT22;487;50.126;8.698;2023-07-20T04:48:56;21.00;1.00
997;DHT22;487;50.126;8.698;2023-07-20T04:51:23;20.60;1.00
997;DHT22;487;50.126;8.698;2023-07-20T04:53:53;20.60;1.00
997;DHT22;487;50.126;8.698;2023-07-20T04:56:20;20.60;1.00
997;DHT22;487;50.126;8.698;2023-07-20T04:58:50;20.50;1.00
997;DHT22;487;50.126;8.698;2023-07-20T05:01:18;20.70;1.00
997;DHT22;487;50.126;8.698;2023-07-20T05:03:46;20.60;1.00
997;DHT22;487;50.126;8.698;2023-07-20T05:08:42;20.40;1.00
997;DHT22;487;50.126;8.698;2023-07-20T05:11:11;20.40;1.00
997;DHT22;487;50.126;8.698;2023-07-20T05:13:40;20.40;1.00
997;DHT22;487;50.126;8.698;2023-07-20T05:16:08;20.60;1.00
997;DHT22;487;50.126;8.698;2023-07-20T05:18:36;20.70;1.00
997;DHT22;487;50.126;8.698;2023-07-20T05:21:05;20.80;1.00
997;DHT22;487;50.126;8.698;2023-07-20T05:23:33;20.80;1.00
997;DHT22;487;50.126;8.698;2023-07-20T05:26:01;20.90;1.00
997;DHT22;487;50.126;8.698;2023-07-20T05:28:30;21.00;1.00
997;DHT22;487;50.126;8.698;2023-07-20T05:30:58;21.00;1.00
997;DHT22;487;50.126;8.698;2023-07-20T05:33:26;20.80;1.00
997;DHT22;487;50.126;8.698;2023-07-20T05:36:01;20.80;1.00
997;DHT22;487;50.126;8.698;2023-07-20T05:40:59;20.70;1.00
997;DHT22;487;50.126;8.698;2023-07-20T05:43:29;20.80;1.00
997;DHT22;487;50.126;8.698;2023-07-20T05:45:57;20.80;1.00
997;DHT22;487;50.126;8.698;2023-07-20T05:50:53;20.60;1.00
997;DHT22;487;50.126;8.698;2023-07-20T05:53:21;20.50;1.00
997;DHT22;487;50.126;8.698;2023-07-20T05:55:52;20.50;1.00
997;DHT22;487;50.126;8.698;2023-07-20T05:58:20;20.40;1.00
997;DHT22;487;50.126;8.698;2023-07-20T06:00:50;20.60;1.00
997;DHT22;487;50.126;8.698;2023-07-20T06:03:18;20.40;1.00
997;DHT22;487;50.126;8.698;2023-07-20T06:05:48;20.40;1.00
997;DHT22;487;50.126;8.698;2023-07-20T06:08:16;20.40;1.00
997;DHT22;487;50.126;8.698;2023-07-20T06:10:44;20.40;1.00
997;DHT22;487;50.126;8.698;2023-07-20T06:13:11;20.40;1.00
997;DHT22;487;50.126;8.698;2023-07-20T06:15:39;20.30;1.00
997;DHT22;487;50.126;8.698;2023-07-20T06:18:09;20.30;1.00
997;DHT22;487;50.126;8.698;2023-07-20T06:20:37;20.30;1.00
997;DHT22;487;50.126;8.698;2023-07-20T06:25:33;20.30;1.00
997;DHT22;487;50.126;8.698;2023-07-20T06:30:33;20.20;1.00
997;DHT22;487;50.126;8.698;2023-07-20T06:33:01;20.10;1.00
997;DHT22;487;50.126;8.698;2023-07-20T06:35:31;20.10;1.00
997;DHT22;487;50.126;8.698;2023-07-20T06:37:59;20.30;1.00
997;DHT22;487;50.126;8.698;2023-07-20T06:40:30;20.30;1.00
997;DHT22;487;50.126;8.698;2023-07-20T06:42:59;20.30;1.00
997;DHT22;487;50.126;8.698;2023-07-20T06:45:30;20.20;1.00
997;DHT22;487;50.126;8.698;2023-07-20T06:47:58;20.10;1.00
997;DHT22;487;50.126;8.698;2023-07-20T06:52:56;20.00;1.00
997;DHT22;487;50.126;8.698;2023-07-20T06:57:53;20.20;1.00
997;DHT22;487;50.126;8.698;2023-07-20T07:00:25;20.30;1.00
997;DHT22;487;50.126;8.698;2023-07-20T07:02:53;20.30;1.00
997;DHT22;487;50.126;8.698;2023-07-20T07:05:21;20.30;1.00
997;DHT22;487;50.126;8.698;2023-07-20T07:07:49;20.30;1.00
997;DHT22;487;50.126;8.698;2023-07-20T07:10:18;20.30;1.00
997;DHT22;487;50.126;8.698;2023-07-20T07:12:46;20.30;1.00
997;DHT22;487;50.126;8.698;2023-07-20T07:15:14;20.40;1.00
997;DHT22;487;50.126;8.698;2023-07-20T07:20:11;20.50;1.00
997;DHT22;487;50.126;8.698;2023-07-20T07:22:47;20.60;1.00
997;DHT22;487;50.126;8.698;2023-07-20T07:25:21;20.70;1.00
997;DHT22;487;50.126;8.698;2023-07-20T07:27:51;20.70;1.00
997;DHT22;487;50.126;8.698;2023-07-20T07:30:19;20.80;1.00
997;DHT22;487;50.126;8.698;2023-07-20T07:32:47;21.00;1.00
997;DHT22;487;50.126;8.698;2023-07-20T07:35:15;20.90;1.00
997;DHT22;487;50.126;8.698;2023-07-20T07:37:43;21.00;1.00
997;DHT22;487;50.126;8.698;2023-07-20T07:40:33;21.20;1.00
997;DHT22;487;50.126;8.698;2023-07-20T07:43:01;21.30;1.00
997;DHT22;487;50.126;8.698;2023-07-20T07:45:31;21.30;1.00
997;DHT22;487;50.126;8.698;2023-07-20T07:47:59;21.40;1.00
997;DHT22;487;50.126;8.698;2023-07-20T07:52:55;21.20;1.00
997;DHT22;487;50.126;8.698;2023-07-20T07:55:25;21.20;1.00
997;DHT22;487;50.126;8.698;2023-07-20T07:57:54;21.10;1.00
997;DHT22;487;50.126;8.698;2023-07-20T08:00:22;20.90;1.00
997;DHT22;487;50.126;8.698;2023-07-20T08:02:50;20.90;1.00
997;DHT22;487;50.126;8.698;2023-07-20T08:05:19;20.80;1.00
997;DHT22;487;50.126;8.698;2023-07-20T08:07:48;21.00;1.00
997;DHT22;487;50.126;8.698;2023-07-20T08:12:44;21.20;1.00
997;DHT22;487;50.126;8.698;2023-07-20T08:15:13;21.50;1.00
997;DHT22;487;50.126;8.698;2023-07-20T08:17:44;21.60;1.00
997;DHT22;487;50.126;8.698;2023-07-20T08:20:13;21.70;1.00
997;DHT22;487;50.126;8.698;2023-07-20T08:25:14;21.80;1.00
997;DHT22;487;50.126;8.698;2023-07-20T08:27:42;21.90;1.00
997;DHT22;487;50.126;8.698;2023-07-20T08:30:14;22.00;1.00
997;DHT22;487;50.126;8.698;2023-07-20T08:35:10;21.90;1.00
997;DHT22;487;50.126;8.698;2023-07-20T08:37:41;22.00;1.00
997;DHT22;487;50.126;8.698;2023-07-20T08:40:10;22.00;1.00
997;DHT22;487;50.126;8.698;2023-07-20T08:42:38;22.00;1.00
997;DHT22;487;50.126;8.698;2023-07-20T08:45:08;21.70;1.00
997;DHT22;487;50.126;8.698;2023-07-20T08:47:38;21.50;1.00
997;DHT22;487;50.126;8.698;2023-07-20T08:50:08;21.40;1.00
997;DHT22;487;50.126;8.698;2023-07-20T08:55:05;21.40;1.00
997;DHT22;487;50.126;8.698;2023-07-20T08:57:34;21.70;1.00
997;DHT22;487;50.126;8.698;2023-07-20T09:00:04;21.90;1.00
997;DHT22;487;50.126;8.698;2023-07-20T09:02:40;22.10;1.00
997;DHT22;487;50.126;8.698;2023-07-20T09:05:10;22.10;1.00
997;DHT22;487;50.126;8.698;2023-07-20T09:07:40;22.20;1.00
997;DHT22;487;50.126;8.698;2023-07-20T09:10:08;22.00;1.00
997;DHT22;487;50.126;8.698;2023-07-20T09:12:37;22.00;1.00
997;DHT22;487;50.126;8.698;2023-07-20T09:15:07;22.00;1.00
997;DHT22;487;50.126;8.698;2023-07-20T09:17:35;22.00;1.00
997;DHT22;487;50.126;8.698;2023-07-20T09:20:06;22.00;1.00
997;DHT22;487;50.126;8.698;2023-07-20T09:22:38;22.20;1.00
997;DHT22;487;50.126;8.698;2023-07-20T09:30:05;22.40;1.00
997;DHT22;487;50.126;8.698;2023-07-20T09:32:38;22.40;1.00
997;DHT22;487;50.126;8.698;2023-07-20T09:37:55;22.50;1.00
997;DHT22;487;50.126;8.698;2023-07-20T09:42:59;22.70;1.00
997;DHT22;487;50.126;8.698;2023-07-20T09:45:33;22.50;1.00
997;DHT22;487;50.126;8.698;2023-07-20T09:48:24;22.50;1.00
997;DHT22;487;50.126;8.698;2023-07-20T09:50:57;22.40;1.00
997;DHT22;487;50.126;8.698;2023-07-20T09:53:25;22.40;1.00
997;DHT22;487;50.126;8.698;2023-07-20T09:55:54;22.50;1.00
997;DHT22;487;50.126;8.698;2023-07-20T09:58:22;22.50;1.00
997;DHT22;487;50.126;8.698;2023-07-20T10:00:51;22.50;1.00
997;DHT22;487;50.126;8.698;2023-07-20T10:03:21;22.50;1.00
997;DHT22;487;50.126;8.698;2023-07-20T10:05:54;22.50;1.00
997;DHT22;487;50.126;8.698;2023-07-20T10:08:25;22.60;1.00
997;DHT22;487;50.126;8.698;2023-07-20T10:10:59;22.60;1.00
997;DHT22;487;50.126;8.698;2023-07-20T10:13:30;22.40;1.00
997;DHT22;487;50.126;8.698;2023-07-20T10:16:03;22.40;1.00
997;DHT22;487;50.126;8.698;2023-07-20T10:18:37;22.50;1.00
997;DHT22;487;50.126;8.698;2023-07-20T10:21:06;22.50;1.00
997;DHT22;487;50.126;8.698;2023-07-20T10:23:39;22.50;1.00
997;DHT22;487;50.126;8.698;2023-07-20T10:26:08;22.50;1.00
997;DHT22;487;50.126;8.698;2023-07-20T10:28:38;22.50;1.00
997;DHT22;487;50.126;8.698;2023-07-20T10:31:08;22.50;1.00
997;DHT22;487;50.126;8.698;2023-07-20T10:33:36;22.50;1.00
997;DHT22;487;50.126;8.698;2023-07-20T10:38:42;22.60;1.00
997;DHT22;487;50.126;8.698;2023-07-20T10:41:18;22.60;1.00
997;DHT22;487;50.126;8.698;2023-07-20T10:43:47;22.70;1.00
997;DHT22;487;50.126;8.698;2023-07-20T10:46:33;22.80;1.00
997;DHT22;487;50.126;8.698;2023-07-20T10:49:03;22.70;1.00
997;DHT22;487;50.126;8.698;2023-07-20T10:51:39;22.60;1.00
997;DHT22;487;50.126;8.698;2023-07-20T10:54:11;22.70;1.00
997;DHT22;487;50.126;8.698;2023-07-20T10:57:21;22.70;1.00
997;DHT22;487;50.126;8.698;2023-07-20T10:59:47;22.60;1.00
997;DHT22;487;50.126;8.698;2023-07-20T11:02:18;22.70;1.00
997;DHT22;487;50.126;8.698;2023-07-20T11:04:47;22.80;1.00
997;DHT22;487;50.126;8.698;2023-07-20T11:07:17;22.80;1.00
997;DHT22;487;50.126;8.698;2023-07-20T11:09:47;22.90;1.00
997;DHT22;487;50.126;8.698;2023-07-20T11:12:17;23.00;1.00
997;DHT22;487;50.126;8.698;2023-07-20T11:14:53;23.00;1.00
997;DHT22;487;50.126;8.698;2023-07-20T11:17:29;22.90;1.00
997;DHT22;487;50.126;8.698;2023-07-20T11:19:58;23.20;1.00
997;DHT22;487;50.126;8.698;2023-07-20T11:22:31;23.30;1.00
997;DHT22;487;50.126;8.698;2023-07-20T11:25:00;23.30;1.00
997;DHT22;487;50.126;8.698;2023-07-20T11:29:56;23.30;1.00
997;DHT22;487;50.126;8.698;2023-07-20T11:32:24;23.20;1.00
997;DHT22;487;50.126;8.698;2023-07-20T11:34:52;23.00;1.00
997;DHT22;487;50.126;8.698;2023-07-20T11:37:20;23.00;1.00
997;DHT22;487;50.126;8.698;2023-07-20T11:39:48;23.40;1.00
997;DHT22;487;50.126;8.698;2023-07-20T11:42:19;23.40;1.00
997;DHT22;487;50.126;8.698;2023-07-20T11:44:51;23.50;1.00
997;DHT22;487;50.126;8.698;2023-07-20T11:47:20;23.60;1.00
997;DHT22;487;50.126;8.698;2023-07-20T11:49:48;23.60;1.00
997;DHT22;487;50.126;8.698;2023-07-20T11:52:23;23.60;1.00
997;DHT22;487;50.126;8.698;2023-07-20T11:54:52;23.40;1.00
997;DHT22;487;50.126;8.698;2023-07-20T11:57:21;23.40;1.00
997;DHT22;487;50.126;8.698;2023-07-20T11:59:56;23.40;1.00
997;DHT22;487;50.126;8.698;2023-07-20T12:02:27;23.50;1.00
997;DHT22;487;50.126;8.698;2023-07-20T12:04:55;23.50;1.00
997;DHT22;487;50.126;8.698;2023-07-20T12:07:26;23.40;1.00
997;DHT22;487;50.126;8.698;2023-07-20T12:10:05;23.40;1.00
997;DHT22;487;50.126;8.698;2023-07-20T12:12:38;23.40;1.00
997;DHT22;487;50.126;8.698;2023-07-20T12:15:15;23.40;1.00
997;DHT22;487;50.126;8.698;2023-07-20T12:17:43;23.50;1.00
997;DHT22;487;50.126;8.698;2023-07-20T12:20:12;23.70;1.00
997;DHT22;487;50.126;8.698;2023-07-20T12:22:41;23.90;1.00
997;DHT22;487;50.126;8.698;2023-07-20T12:25:10;24.00;1.00
997;DHT22;487;50.126;8.698;2023-07-20T12:27:40;23.90;1.00
997;DHT22;487;50.126;8.698;2023-07-20T12:30:09;23.90;1.00
997;DHT22;487;50.126;8.698;2023-07-20T12:32:37;24.00;1.00
997;DHT22;487;50.126;8.698;2023-07-20T12:35:06;23.80;1.00
997;DHT22;487;50.126;8.698;2023-07-20T12:37:33;23.80;1.00
997;DHT22;487;50.126;8.698;2023-07-20T12:42:30;23.70;1.00
997;DHT22;487;50.126;8.698;2023-07-20T12:45:00;23.80;1.00
997;DHT22;487;50.126;8.698;2023-07-20T12:52:24;24.20;1.00
997;DHT22;487;50.126;8.698;2023-07-20T12:54:52;24.20;1.00
997;DHT22;487;50.126;8.698;2023-07-20T13:02:18;24.30;1.00
997;DHT22;487;50.126;8.698;2023-07-20T13:04:45;24.10;1.00
997;DHT22;487;50.126;8.698;2023-07-20T13:12:13;24.50;1.00
997;DHT22;487;50.126;8.698;2023-07-20T13:17:09;24.90;1.00
997;DHT22;487;50.126;8.698;2023-07-20T13:19:38;24.90;1.00
997;DHT22;487;50.126;8.698;2023-07-20T13:22:06;25.10;1.00
997;DHT22;487;50.126;8.698;2023-07-20T13:24:34;25.00;1.00
997;DHT22;487;50.126;8.698;2023-07-20T13:27:02;25.20;1.00
997;DHT22;487;50.126;8.698;2023-07-20T13:29:30;25.20;1.00
997;DHT22;487;50.126;8.698;2023-07-20T13:31:58;25.20;1.00
997;DHT22;487;50.126;8.698;2023-07-20T13:34:27;25.10;1.00
997;DHT22;487;50.126;8.698;2023-07-20T13:39:28;25.40;1.00
997;DHT22;487;50.126;8.698;2023-07-20T13:41:55;25.40;1.00
997;DHT22;487;50.126;8.698;2023-07-20T13:46:51;25.70;1.00
997;DHT22;487;50.126;8.698;2023-07-20T13:49:39;25.80;1.00
997;DHT22;487;50.126;8.698;2023-07-20T13:52:11;25.80;1.00
997;DHT22;487;50.126;8.698;2023-07-20T13:57:16;25.70;1.00
997;DHT22;487;50.126;8.698;2023-07-20T13:59:44;25.50;1.00
997;DHT22;487;50.126;8.698;2023-07-20T14:02:14;25.20;1.00
997;DHT22;487;50.126;8.698;2023-07-20T14:04:44;25.10;1.00
997;DHT22;487;50.126;8.698;2023-07-20T14:07:14;25.00;1.00
997;DHT22;487;50.126;8.698;2023-07-20T14:09:45;24.80;1.00
997;DHT22;487;50.126;8.698;2023-07-20T14:12:16;24.90;1.00
997;DHT22;487;50.126;8.698;2023-07-20T14:14:46;24.90;1.00
997;DHT22;487;50.126;8.698;2023-07-20T14:17:13;25.10;1.00
997;DHT22;487;50.126;8.698;2023-07-20T14:19:41;25.20;1.00
997;DHT22;487;50.126;8.698;2023-07-20T14:22:10;25.20;1.00
997;DHT22;487;50.126;8.698;2023-07-20T14:24:39;25.20;1.00
997;DHT22;487;50.126;8.698;2023-07-20T14:27:07;25.20;1.00
997;DHT22;487;50.126;8.698;2023-07-20T14:29:35;25.30;1.00
997;DHT22;487;50.126;8.698;2023-07-20T14:34:34;25.20;1.00
997;DHT22;487;50.126;8.698;2023-07-20T14:37:05;25.10;1.00
997;DHT22;487;50.126;8.698;2023-07-20T14:39:33;25.10;1.00
997;DHT22;487;50.126;8.698;2023-07-20T14:42:03;25.10;1.00
997;DHT22;487;50.126;8.698;2023-07-20T14:44:33;25.20;1.00
997;DHT22;487;50.126;8.698;2023-07-20T14:49:40;25.40;1.00
997;DHT22;487;50.126;8.698;2023-07-20T14:54:39;25.40;1.00
997;DHT22;487;50.126;8.698;2023-07-20T14:57:08;25.40;1.00
997;DHT22;487;50.126;8.698;2023-07-20T14:59:41;25.40;1.00
997;DHT22;487;50.126;8.698;2023-07-20T15:04:45;25.50;1.00
997;DHT22;487;50.126;8.698;2023-07-20T15:07:13;25.40;1.00
997;DHT22;487;50.126;8.698;2023-07-20T15:12:13;25.40;1.00
997;DHT22;487;50.126;8.698;2023-07-20T15:14:42;25.40;1.00
997;DHT22;487;50.126;8.698;2023-07-20T15:17:10;25.40;1.00
997;DHT22;487;50.126;8.698;2023-07-20T15:19:39;25.40;1.00
997;DHT22;487;50.126;8.698;2023-07-20T15:22:07;25.40;1.00
997;DHT22;487;50.126;8.698;2023-07-20T15:24:36;25.50;1.00
997;DHT22;487;50.126;8.698;2023-07-20T15:27:04;25.50;1.00
997;DHT22;487;50.126;8.698;2023-07-20T15:29:33;25.40;1.00
997;DHT22;487;50.126;8.698;2023-07-20T15:32:02;25.20;1.00
997;DHT22;487;50.126;8.698;2023-07-20T15:39:27;25.10;1.00
997;DHT22;487;50.126;8.698;2023-07-20T15:41:55;25.10;1.00
997;DHT22;487;50.126;8.698;2023-07-20T15:46:52;25.10;1.00
997;DHT22;487;50.126;8.698;2023-07-20T15:49:21;25.10;1.00
997;DHT22;487;50.126;8.698;2023-07-20T15:51:51;25.10;1.00
997;DHT22;487;50.126;8.698;2023-07-20T15:54:19;25.10;1.00
997;DHT22;487;50.126;8.698;2023-07-20T15:56:47;25.10;1.00
997;DHT22;487;50.126;8.698;2023-07-20T15:59:16;25.20;1.00
997;DHT22;487;50.126;8.698;2023-07-20T16:01:44;25.20;1.00
997;DHT22;487;50.126;8.698;2023-07-20T16:04:14;25.20;1.00
997;DHT22;487;50.126;8.698;2023-07-20T16:06:42;25.30;1.00
997;DHT22;487;50.126;8.698;2023-07-20T16:14:06;25.30;1.00
997;DHT22;487;50.126;8.698;2023-07-20T16:21:34;25.40;1.00
997;DHT22;487;50.126;8.698;2023-07-20T16:24:02;25.40;1.00
997;DHT22;487;50.126;8.698;2023-07-20T16:26:30;25.50;1.00
997;DHT22;487;50.126;8.698;2023-07-20T16:33:59;25.30;1.00
997;DHT22;487;50.126;8.698;2023-07-20T16:36:30;25.30;1.00
997;DHT22;487;50.126;8.698;2023-07-20T16:39:20;25.30;1.00
997;DHT22;487;50.126;8.698;2023-07-20T16:41:51;25.40;1.00
997;DHT22;487;50.126;8.698;2023-07-20T16:44:21;25.40;1.00
997;DHT22;487;50.126;8.698;2023-07-20T16:46:49;25.50;1.00
997;DHT22;487;50.126;8.698;2023-07-20T16:49:20;25.60;1.00
997;DHT22;487;50.126;8.698;2023-07-20T16:51:48;25.70;1.00
997;DHT22;487;50.126;8.698;2023-07-20T16:54:16;25.70;1.00
997;DHT22;487;50.126;8.698;2023-07-20T16:56:46;25.60;1.00
997;DHT22;487;50.126;8.698;2023-07-20T17:04:12;25.40;1.00
997;DHT22;487;50.126;8.698;2023-07-20T17:06:41;25.30;1.00
997;DHT22;487;50.126;8.698;2023-07-20T17:11:38;24.80;1.00
997;DHT22;487;50.126;8.698;2023-07-20T17:14:07;24.80;1.00
997;DHT22;487;50.126;8.698;2023-07-20T17:21:36;24.30;1.00
997;DHT22;487;50.126;8.698;2023-07-20T17:24:05;24.30;1.00
997;DHT22;487;50.126;8.698;2023-07-20T17:26:34;24.20;1.00
997;DHT22;487;50.126;8.698;2023-07-20T17:31:34;24.20;1.00
997;DHT22;487;50.126;8.698;2023-07-20T17:34:03;24.20;1.00
997;DHT22;487;50.126;8.698;2023-07-20T17:39:02;24.20;1.00
997;DHT22;487;50.126;8.698;2023-07-20T17:41:29;24.20;1.00
997;DHT22;487;50.126;8.698;2023-07-20T17:46:30;24.40;1.00
997;DHT22;487;50.126;8.698;2023-07-20T17:49:02;24.50;1.00
997;DHT22;487;50.126;8.698;2023-07-20T17:51:30;24.70;1.00
997;DHT22;487;50.126;8.698;2023-07-20T17:53:58;25.00;1.00
997;DHT22;487;50.126;8.698;2023-07-20T17:56:26;25.20;1.00
997;DHT22;487;50.126;8.698;2023-07-20T17:58:54;25.30;1.00
997;DHT22;487;50.126;8.698;2023-07-20T18:01:21;25.70;1.00
997;DHT22;487;50.126;8.698;2023-07-20T18:03:50;25.80;1.00
997;DHT22;487;50.126;8.698;2023-07-20T18:06:19;26.00;1.00
997;DHT22;487;50.126;8.698;2023-07-20T18:11:15;25.90;1.00
997;DHT22;487;50.126;8.698;2023-07-20T18:16:11;25.90;1.00
997;DHT22;487;50.126;8.698;2023-07-20T18:21:08;26.00;1.00
997;DHT22;487;50.126;8.698;2023-07-20T18:23:37;26.10;1.00
997;DHT22;487;50.126;8.698;2023-07-20T18:26:05;26.10;1.00
997;DHT22;487;50.126;8.698;2023-07-20T18:31:04;26.30;1.00
997;DHT22;487;50.126;8.698;2023-07-20T18:33:32;26.20;1.00
997;DHT22;487;50.126;8.698;2023-07-20T18:36:00;26.00;1.00
997;DHT22;487;50.126;8.698;2023-07-20T18:40:57;25.30;1.00
997;DHT22;487;50.126;8.698;2023-07-20T18:45:53;25.10;1.00
997;DHT22;487;50.126;8.698;2023-07-20T18:48:21;24.80;1.00
997;DHT22;487;50.126;8.698;2023-07-20T18:55:45;24.50;1.00
997;DHT22;487;50.126;8.698;2023-07-20T18:58:14;24.20;1.00
997;DHT22;487;50.126;8.698;2023-07-20T19:00:42;24.10;1.00
997;DHT22;487;50.126;8.698;2023-07-20T19:03:10;24.00;1.00
997;DHT22;487;50.126;8.698;2023-07-20T19:08:11;23.80;1.00
997;DHT22;487;50.126;8.698;2023-07-20T19:13:10;23.50;1.00
997;DHT22;487;50.126;8.698;2023-07-20T19:15:47;23.60;1.00
997;DHT22;487;50.126;8.698;2023-07-20T19:23:11;23.40;1.00
997;DHT22;487;50.126;8.698;2023-07-20T19:25:39;23.40;1.00
997;DHT22;487;50.126;8.698;2023-07-20T19:28:07;23.30;1.00
997;DHT22;487;50.126;8.698;2023-07-20T19:30:36;23.20;1.00
997;DHT22;487;50.126;8.698;2023-07-20T19:33:05;23.20;1.00
997;DHT22;487;50.126;8.698;2023-07-20T19:35:33;23.10;1.00
997;DHT22;487;50.126;8.698;2023-07-20T19:50:26;23.00;1.00
997;DHT22;487;50.126;8.698;2023-07-20T19:55:25;23.00;1.00
997;DHT22;487;50.126;8.698;2023-07-20T19:57:53;23.00;1.00
997;DHT22;487;50.126;8.698;2023-07-20T20:00:22;22.90;1.00
997;DHT22;487;50.126;8.698;2023-07-20T20:05:28;22.80;1.00
997;DHT22;487;50.126;8.698;2023-07-20T20:15:20;22.60;1.00
997;DHT22;487;50.126;8.698;2023-07-20T20:17:48;22.60;1.00
997;DHT22;487;50.126;8.698;2023-07-20T20:22:46;22.50;1.00
997;DHT22;487;50.126;8.698;2023-07-20T20:25:14;22.50;1.00
997;DHT22;487;50.126;8.698;2023-07-20T20:30:11;22.50;1.00
997;DHT22;487;50.126;8.698;2023-07-20T20:35:10;22.50;1.00
997;DHT22;487;50.126;8.698;2023-07-20T20:37:38;22.50;1.00
997;DHT22;487;50.126;8.698;2023-07-20T20:40:08;22.50;1.00
997;DHT22;487;50.126;8.698;2023-07-20T20:45:06;22.50;1.00
997;DHT22;487;50.126;8.698;2023-07-20T20:47:36;22.30;1.00
997;DHT22;487;50.126;8.698;2023-07-20T20:50:05;22.30;1.00
997;DHT22;487;50.126;8.698;2023-07-20T20:55:04;22.30;1.00
997;DHT22;487;50.126;8.698;2023-07-20T20:57:33;22.20;1.00
997;DHT22;487;50.126;8.698;2023-07-20T21:02:30;22.20;1.00
997;DHT22;487;50.126;8.698;2023-07-20T21:04:58;22.10;1.00
997;DHT22;487;50.126;8.698;2023-07-20T21:07:27;22.20;1.00
997;DHT22;487;50.126;8.698;2023-07-20T21:09:54;22.10;1.00
997;DHT22;487;50.126;8.698;2023-07-20T21:17:20;22.10;1.00
997;DHT22;487;50.126;8.698;2023-07-20T21:22:16;22.00;1.00
997;DHT22;487;50.126;8.698;2023-07-20T21:24:44;22.10;1.00
997;DHT22;487;50.126;8.698;2023-07-20T21:27:12;22.00;1.00
997;DHT22;487;50.126;8.698;2023-07-20T21:29:40;22.00;1.00
997;DHT22;487;50.126;8.698;2023-07-20T21:32:09;21.90;1.00
997;DHT22;487;50.126;8.698;2023-07-20T21:34:38;22.00;1.00
997;DHT22;487;50.126;8.698;2023-07-20T21:37:05;21.90;1.00
997;DHT22;487;50.126;8.698;2023-07-20T21:39:33;21.80;1.00
997;DHT22;487;50.126;8.698;2023-07-20T21:42:01;21.90;1.00
997;DHT22;487;50.126;8.698;2023-07-20T21:44:30;21.90;1.00
997;DHT22;487;50.126;8.698;2023-07-20T21:46:58;22.00;1.00
997;DHT22;487;50.126;8.698;2023-07-20T21:51:55;21.90;1.00
997;DHT22;487;50.126;8.698;2023-07-20T21:59:20;21.80;1.00
997;DHT22;487;50.126;8.698;2023-07-20T22:01:47;21.80;1.00
997;DHT22;487;50.126;8.698;2023-07-20T22:04:28;21.90;1.00
997;DHT22;487;50.126;8.698;2023-07-20T22:14:21;21.80;1.00
997;DHT22;487;50.126;8.698;2023-07-20T22:16:52;21.90;1.00
997;DHT22;487;50.126;8.698;2023-07-20T22:21:49;21.80;1.00
997;DHT22;487;50.126;8.698;2023-07-20T22:26:50;21.80;1.00
997;DHT22;487;50.126;8.698;2023-07-20T22:29:19;21.80;1.00
997;DHT22;487;50.126;8.698;2023-07-20T22:31:46;21.80;1.00
997;DHT22;487;50.126;8.698;2023-07-20T22:34:14;21.80;1.00
997;DHT22;487;50.126;8.698;2023-07-20T22:36:42;21.70;1.00
997;DHT22;487;50.126;8.698;2023-07-20T22:39:11;21.80;1.00
997;DHT22;487;50.126;8.698;2023-07-20T22:41:40;21.80;1.00
997;DHT22;487;50.126;8.698;2023-07-20T22:44:08;21.80;1.00
997;DHT22;487;50.126;8.698;2023-07-20T22:46:36;21.70;1.00
997;DHT22;487;50.126;8.698;2023-07-20T22:51:32;21.80;1.00
997;DHT22;487;50.126;8.698;2023-07-20T22:53:59;21.80;1.00
997;DHT22;487;50.126;8.698;2023-07-20T22:56:29;21.80;1.00
997;DHT22;487;50.126;8.698;2023-07-20T23:03:54;21.70;1.00
997;DHT22;487;50.126;8.698;2023-07-20T23:11:21;21.80;1.00
997;DHT22;487;50.126;8.698;2023-07-20T23:13:51;21.70;1.00
997;DHT22;487;50.126;8.698;2023-07-20T23:16:19;21.70;1.00
997;DHT22;487;50.126;8.698;2023-07-20T23:18:47;21.70;1.00
997;DHT22;487;50.126;8.698;2023-07-20T23:21:15;21.70;1.00
997;DHT22;487;50.126;8.698;2023-07-20T23:26:12;21.60;1.00
997;DHT22;487;50.126;8.698;2023-07-20T23:28:40;21.50;1.00
997;DHT22;487;50.126;8.698;2023-07-20T23:31:09;21.50;1.00
997;DHT22;487;50.126;8.698;2023-07-20T23:33:37;21.50;1.00
997;DHT22;487;50.126;8.698;2023-07-20T23:36:05;21.40;1.00
997;DHT22;487;50.126;8.698;2023-07-20T23:38:35;21.30;1.00
997;DHT22;487;50.126;8.698;2023-07-20T23:41:03;21.20;1.00
997;DHT22;487;50.126;8.698;2023-07-20T23:43:33;21.10;1.00
997;DHT22;487;50.126;8.698;2023-07-20T23:46:01;21.10;1.00
997;DHT22;487;50.126;8.698;2023-07-20T23:48:33;21.10;1.00
997;DHT22;487;50.126;8.698;2023-07-20T23:53:36;21.00;1.00
997;DHT22;487;50.126;8.698;2023-07-20T23:56:04;21.00;1.00
997;DHT22;487;50.126;8.698;2023-07-20T23:58:33;21.00;1.00
